sensor_id;sensor_type;location;lat;lon;timestamp;pressure;altitude;pressure_sealevel;temperature;humidity
4598;BME280;62772;48.646;8.906;2023-05-07T00:02:41;96188.78;;;10.69;100.00
4598;BME280;62772;48.646;8.906;2023-05-07T00:07:42;96179.38;;;10.80;100.00
4598;BME280;62772;48.646;8.906;2023-05-07T00:12:43;96187.72;;;11.61;100.00
4598;BME280;62772;48.646;8.906;2023-05-07T00:17:43;96181.41;;;11.18;100.00
4598;BME280;62772;48.646;8.906;2023-05-07T00:22:44;96180.88;;;11.42;100.00
4598;BME280;62772;48.646;8.906;2023-05-07T00:27:44;96178.56;;;10.88;100.00
4598;BME280;62772;48.646;8.906;2023-05-07T00:32:45;96179.66;;;11.14;100.00
4598;BME280;62772;48.646;8.906;2023-05-07T00:37:46;96172.69;;;11.48;100.00
4598;BME280;62772;48.646;8.906;2023-05-07T00:42:47;96175.38;;;11.21;100.00
4598;BME280;62772;48.646;8.906;2023-05-07T00:47:49;96165.38;;;10.92;100.00
4598;BME280;62772;48.646;8.906;2023-05-07T00:52:49;96163.34;;;10.63;100.00
4598;BME280;62772;48.646;8.906;2023-05-07T00:57:50;96158.00;;;10.98;100.00
4598;BME280;62772;48.646;8.906;2023-05-07T01:02:51;96153.56;;;10.67;100.00
4598;BME280;62772;48.646;8.906;2023-05-07T01:07:53;96163.31;;;10.71;100.00
4598;BME280;62772;48.646;8.906;2023-05-07T01:12:55;96163.63;;;10.87;100.00
4598;BME280;62772;48.646;8.906;2023-05-07T01:17:55;96148.34;;;11.23;100.00
4598;BME280;62772;48.646;8.906;2023-05-07T01:23:03;96156.75;;;10.86;100.00
4598;BME280;62772;48.646;8.906;2023-05-07T01:28:05;96150.13;;;10.66;100.00
4598;BME280;62772;48.646;8.906;2023-05-07T01:33:13;96154.38;;;10.76;100.00
4598;BME280;62772;48.646;8.906;2023-05-07T01:38:16;96163.81;;;10.82;100.00
4598;BME280;62772;48.646;8.906;2023-05-07T01:43:17;96165.50;;;10.43;100.00
4598;BME280;62772;48.646;8.906;2023-05-07T01:48:18;96158.59;;;10.42;100.00
4598;BME280;62772;48.646;8.906;2023-05-07T01:53:18;96157.50;;;11.04;100.00
4598;BME280;62772;48.646;8.906;2023-05-07T01:58:19;96156.25;;;10.67;100.00
4598;BME280;62772;48.646;8.906;2023-05-07T02:03:20;96151.84;;;10.62;100.00
4598;BME280;62772;48.646;8.906;2023-05-07T02:08:35;96151.53;;;10.55;100.00
4598;BME280;62772;48.646;8.906;2023-05-07T02:13:36;96158.19;;;10.17;100.00
4598;BME280;62772;48.646;8.906;2023-05-07T02:18:37;96156.34;;;10.18;100.00
4598;BME280;62772;48.646;8.906;2023-05-07T02:23:37;96159.88;;;10.53;100.00
4598;BME280;62772;48.646;8.906;2023-05-07T02:28:38;96163.72;;;9.81;100.00
4598;BME280;62772;48.646;8.906;2023-05-07T02:33:40;96160.50;;;10.02;100.00
4598;BME280;62772;48.646;8.906;2023-05-07T02:38:43;96165.53;;;10.03;100.00
4598;BME280;62772;48.646;8.906;2023-05-07T02:43:44;96164.28;;;10.58;100.00
4598;BME280;62772;48.646;8.906;2023-05-07T02:48:45;96156.09;;;9.97;100.00
4598;BME280;62772;48.646;8.906;2023-05-07T02:53:45;96147.50;;;10.09;100.00
4598;BME280;62772;48.646;8.906;2023-05-07T02:58:46;96144.78;;;10.49;100.00
4598;BME280;62772;48.646;8.906;2023-05-07T03:03:48;96131.78;;;9.90;100.00
4598;BME280;62772;48.646;8.906;2023-05-07T03:08:48;96134.34;;;10.21;100.00
4598;BME280;62772;48.646;8.906;2023-05-07T03:13:49;96136.66;;;9.96;100.00
4598;BME280;62772;48.646;8.906;2023-05-07T03:18:52;96146.81;;;9.46;100.00
4598;BME280;62772;48.646;8.906;2023-05-07T03:23:52;96155.31;;;9.25;100.00
4598;BME280;62772;48.646;8.906;2023-05-07T03:28:53;96146.72;;;9.28;100.00
4598;BME280;62772;48.646;8.906;2023-05-07T03:33:55;96139.09;;;9.13;100.00
4598;BME280;62772;48.646;8.906;2023-05-07T03:38:56;96132.00;;;9.31;100.00
4598;BME280;62772;48.646;8.906;2023-05-07T03:43:59;96130.81;;;9.86;100.00
4598;BME280;62772;48.646;8.906;2023-05-07T03:49:00;96140.06;;;9.17;100.00
4598;BME280;62772;48.646;8.906;2023-05-07T03:54:01;96140.44;;;8.79;100.00
4598;BME280;62772;48.646;8.906;2023-05-07T03:59:04;96122.78;;;8.83;100.00
4598;BME280;62772;48.646;8.906;2023-05-07T04:04:04;96140.97;;;9.12;100.00
4598;BME280;62772;48.646;8.906;2023-05-07T04:09:07;96137.19;;;9.36;100.00
4598;BME280;62772;48.646;8.906;2023-05-07T04:14:08;96143.56;;;9.57;100.00
4598;BME280;62772;48.646;8.906;2023-05-07T04:19:09;96140.44;;;9.01;100.00
4598;BME280;62772;48.646;8.906;2023-05-07T04:24:11;96147.28;;;8.94;100.00
4598;BME280;62772;48.646;8.906;2023-05-07T04:29:12;96155.31;;;9.25;100.00
4598;BME280;62772;48.646;8.906;2023-05-07T04:34:12;96152.44;;;9.75;100.00
4598;BME280;62772;48.646;8.906;2023-05-07T04:39:14;96153.56;;;9.92;100.00
4598;BME280;62772;48.646;8.906;2023-05-07T04:44:18;96157.38;;;9.59;100.00
4598;BME280;62772;48.646;8.906;2023-05-07T04:49:19;96158.44;;;9.90;100.00
4598;BME280;62772;48.646;8.906;2023-05-07T04:54:20;96159.84;;;9.56;100.00
4598;BME280;62772;48.646;8.906;2023-05-07T04:59:20;96172.81;;;10.20;100.00
4598;BME280;62772;48.646;8.906;2023-05-07T05:04:22;96175.06;;;9.95;100.00
4598;BME280;62772;48.646;8.906;2023-05-07T05:09:22;96177.06;;;9.81;100.00
4598;BME280;62772;48.646;8.906;2023-05-07T05:14:23;96184.84;;;9.69;100.00
4598;BME280;62772;48.646;8.906;2023-05-07T05:19:25;96178.22;;;10.38;100.00
4598;BME280;62772;48.646;8.906;2023-05-07T05:24:25;96189.69;;;10.56;100.00
4598;BME280;62772;48.646;8.906;2023-05-07T05:29:26;96190.97;;;10.84;100.00
4598;BME280;62772;48.646;8.906;2023-05-07T05:34:26;96192.53;;;10.94;100.00
4598;BME280;62772;48.646;8.906;2023-05-07T05:39:28;96195.72;;;10.96;100.00
4598;BME280;62772;48.646;8.906;2023-05-07T05:44:29;96200.56;;;11.12;100.00
4598;BME280;62772;48.646;8.906;2023-05-07T05:49:29;96201.16;;;11.26;100.00
4598;BME280;62772;48.646;8.906;2023-05-07T05:54:30;96209.16;;;11.52;100.00
4598;BME280;62772;48.646;8.906;2023-05-07T05:59:31;96205.19;;;11.67;100.00
4598;BME280;62772;48.646;8.906;2023-05-07T06:04:31;96198.50;;;11.91;100.00
4598;BME280;62772;48.646;8.906;2023-05-07T06:09:32;96203.50;;;12.10;100.00
4598;BME280;62772;48.646;8.906;2023-05-07T06:14:33;96207.66;;;12.28;100.00
4598;BME280;62772;48.646;8.906;2023-05-07T06:19:34;96199.25;;;12.39;100.00
4598;BME280;62772;48.646;8.906;2023-05-07T06:24:35;96210.91;;;12.64;100.00
4598;BME280;62772;48.646;8.906;2023-05-07T06:29:37;96203.28;;;12.54;100.00
4598;BME280;62772;48.646;8.906;2023-05-07T06:34:45;96204.38;;;12.74;100.00
4598;BME280;62772;48.646;8.906;2023-05-07T06:39:47;96213.34;;;12.99;100.00
4598;BME280;62772;48.646;8.906;2023-05-07T06:44:47;96221.53;;;13.23;100.00
4598;BME280;62772;48.646;8.906;2023-05-07T06:49:50;96215.56;;;13.39;100.00
4598;BME280;62772;48.646;8.906;2023-05-07T06:54:53;96209.56;;;13.21;100.00
4598;BME280;62772;48.646;8.906;2023-05-07T06:59:56;96212.16;;;13.51;100.00
4598;BME280;62772;48.646;8.906;2023-05-07T07:04:56;96213.50;;;13.57;100.00
4598;BME280;62772;48.646;8.906;2023-05-07T07:09:57;96209.09;;;13.86;100.00
4598;BME280;62772;48.646;8.906;2023-05-07T07:14:58;96218.53;;;14.17;100.00
4598;BME280;62772;48.646;8.906;2023-05-07T07:19:58;96224.13;;;14.24;100.00
4598;BME280;62772;48.646;8.906;2023-05-07T07:24:59;96226.69;;;14.45;100.00
4598;BME280;62772;48.646;8.906;2023-05-07T07:30:00;96217.84;;;14.69;100.00
4598;BME280;62772;48.646;8.906;2023-05-07T07:35:01;96222.56;;;14.72;100.00
4598;BME280;62772;48.646;8.906;2023-05-07T07:40:02;96223.47;;;14.64;100.00
4598;BME280;62772;48.646;8.906;2023-05-07T07:45:04;96215.38;;;14.76;100.00
4598;BME280;62772;48.646;8.906;2023-05-07T07:50:08;96221.94;;;15.32;100.00
4598;BME280;62772;48.646;8.906;2023-05-07T07:55:09;96222.56;;;15.41;100.00
4598;BME280;62772;48.646;8.906;2023-05-07T08:00:12;96233.75;;;15.71;100.00
4598;BME280;62772;48.646;8.906;2023-05-07T08:05:18;96238.00;;;15.72;100.00
4598;BME280;62772;48.646;8.906;2023-05-07T08:10:21;96225.25;;;15.69;100.00
4598;BME280;62772;48.646;8.906;2023-05-07T08:15:24;96228.34;;;15.84;100.00
4598;BME280;62772;48.646;8.906;2023-05-07T08:20:25;96225.03;;;16.06;100.00
4598;BME280;62772;48.646;8.906;2023-05-07T08:25:26;96223.66;;;16.12;100.00
4598;BME280;62772;48.646;8.906;2023-05-07T08:30:28;96225.28;;;16.49;100.00
4598;BME280;62772;48.646;8.906;2023-05-07T08:35:29;96230.00;;;16.36;100.00
4598;BME280;62772;48.646;8.906;2023-05-07T08:40:35;96219.81;;;16.45;100.00
4598;BME280;62772;48.646;8.906;2023-05-07T08:45:39;96226.41;;;16.64;100.00
4598;BME280;62772;48.646;8.906;2023-05-07T08:50:42;96224.38;;;16.77;100.00
4598;BME280;62772;48.646;8.906;2023-05-07T08:55:45;96226.97;;;16.73;100.00
4598;BME280;62772;48.646;8.906;2023-05-07T09:00:47;96226.34;;;16.96;100.00
4598;BME280;62772;48.646;8.906;2023-05-07T09:05:48;96216.63;;;16.91;100.00
4598;BME280;62772;48.646;8.906;2023-05-07T09:10:52;96223.72;;;17.19;100.00
4598;BME280;62772;48.646;8.906;2023-05-07T09:15:53;96223.38;;;17.83;100.00
4598;BME280;62772;48.646;8.906;2023-05-07T09:20:54;96210.44;;;17.92;100.00
4598;BME280;62772;48.646;8.906;2023-05-07T09:25:59;96210.72;;;17.87;100.00
4598;BME280;62772;48.646;8.906;2023-05-07T09:31:02;96209.81;;;17.79;100.00
4598;BME280;62772;48.646;8.906;2023-05-07T09:36:05;96206.75;;;17.81;100.00
4598;BME280;62772;48.646;8.906;2023-05-07T09:41:09;96210.69;;;18.29;100.00
4598;BME280;62772;48.646;8.906;2023-05-07T09:46:17;96212.59;;;18.29;100.00
4598;BME280;62772;48.646;8.906;2023-05-07T09:51:34;96212.38;;;18.64;97.65
4598;BME280;62772;48.646;8.906;2023-05-07T09:56:39;96212.53;;;18.48;99.64
4598;BME280;62772;48.646;8.906;2023-05-07T10:01:43;96203.19;;;18.73;98.10
4598;BME280;62772;48.646;8.906;2023-05-07T10:06:46;96192.69;;;18.67;97.03
4598;BME280;62772;48.646;8.906;2023-05-07T10:11:49;96182.53;;;18.61;96.30
4598;BME280;62772;48.646;8.906;2023-05-07T10:22:55;96182.13;;;19.16;92.35
4598;BME280;62772;48.646;8.906;2023-05-07T10:28:06;96175.59;;;19.20;92.02
4598;BME280;62772;48.646;8.906;2023-05-07T10:33:10;96177.13;;;19.52;88.91
4598;BME280;62772;48.646;8.906;2023-05-07T10:38:16;96178.06;;;19.70;88.57
4598;BME280;62772;48.646;8.906;2023-05-07T10:43:19;96169.91;;;19.67;90.85
4598;BME280;62772;48.646;8.906;2023-05-07T10:48:28;96168.25;;;19.96;82.89
4598;BME280;62772;48.646;8.906;2023-05-07T10:53:32;96165.28;;;20.12;83.23
4598;BME280;62772;48.646;8.906;2023-05-07T10:58:41;96165.22;;;20.05;88.40
4598;BME280;62772;48.646;8.906;2023-05-07T11:04:14;96163.41;;;20.23;85.44
4598;BME280;62772;48.646;8.906;2023-05-07T11:09:20;96144.94;;;20.36;86.64
4598;BME280;62772;48.646;8.906;2023-05-07T11:14:44;96158.03;;;20.27;84.79
4598;BME280;62772;48.646;8.906;2023-05-07T11:19:54;96175.00;;;20.17;84.34
4598;BME280;62772;48.646;8.906;2023-05-07T11:25:22;96172.25;;;20.13;86.24
4598;BME280;62772;48.646;8.906;2023-05-07T11:30:45;96167.59;;;20.14;86.12
4598;BME280;62772;48.646;8.906;2023-05-07T11:35:50;96164.03;;;20.02;86.80
4598;BME280;62772;48.646;8.906;2023-05-07T11:40:56;96170.28;;;20.06;82.83
4598;BME280;62772;48.646;8.906;2023-05-07T11:46:05;96173.00;;;19.69;86.90
4598;BME280;62772;48.646;8.906;2023-05-07T11:51:07;96186.91;;;19.67;85.91
4598;BME280;62772;48.646;8.906;2023-05-07T11:56:14;96193.25;;;18.80;100.00
4598;BME280;62772;48.646;8.906;2023-05-07T12:01:15;96179.31;;;18.52;100.00
4598;BME280;62772;48.646;8.906;2023-05-07T12:06:16;96187.50;;;18.05;100.00
4598;BME280;62772;48.646;8.906;2023-05-07T12:11:24;96190.75;;;18.15;88.84
4598;BME280;62772;48.646;8.906;2023-05-07T12:16:26;96197.44;;;17.78;86.02
4598;BME280;62772;48.646;8.906;2023-05-07T12:21:27;96210.47;;;17.72;86.36
4598;BME280;62772;48.646;8.906;2023-05-07T12:26:28;96217.19;;;17.39;99.61
4598;BME280;62772;48.646;8.906;2023-05-07T12:31:28;96221.19;;;17.69;100.00
4598;BME280;62772;48.646;8.906;2023-05-07T12:36:37;96224.69;;;17.89;100.00
4598;BME280;62772;48.646;8.906;2023-05-07T12:41:57;96243.38;;;17.98;100.00
4598;BME280;62772;48.646;8.906;2023-05-07T12:47:01;96255.84;;;17.86;100.00
4598;BME280;62772;48.646;8.906;2023-05-07T12:52:02;96263.44;;;17.77;100.00
4598;BME280;62772;48.646;8.906;2023-05-07T12:57:03;96296.47;;;17.31;100.00
4598;BME280;62772;48.646;8.906;2023-05-07T13:02:05;96308.84;;;17.16;100.00
4598;BME280;62772;48.646;8.906;2023-05-07T13:07:05;96321.94;;;17.14;100.00
4598;BME280;62772;48.646;8.906;2023-05-07T13:12:06;96330.75;;;16.79;100.00
4598;BME280;62772;48.646;8.906;2023-05-07T13:17:07;96331.44;;;16.60;100.00
4598;BME280;62772;48.646;8.906;2023-05-07T13:22:07;96324.38;;;16.08;100.00
4598;BME280;62772;48.646;8.906;2023-05-07T13:27:08;96321.06;;;15.17;100.00
4598;BME280;62772;48.646;8.906;2023-05-07T13:32:10;96316.97;;;14.71;100.00
4598;BME280;62772;48.646;8.906;2023-05-07T13:37:10;96329.94;;;14.93;100.00
4598;BME280;62772;48.646;8.906;2023-05-07T13:42:12;96324.81;;;14.88;100.00
4598;BME280;62772;48.646;8.906;2023-05-07T13:47:12;96330.28;;;15.04;100.00
4598;BME280;62772;48.646;8.906;2023-05-07T13:52:13;96323.31;;;15.03;100.00
4598;BME280;62772;48.646;8.906;2023-05-07T13:57:13;96314.81;;;14.88;100.00
4598;BME280;62772;48.646;8.906;2023-05-07T14:02:14;96314.13;;;14.55;100.00
4598;BME280;62772;48.646;8.906;2023-05-07T14:07:15;96305.41;;;14.58;100.00
4598;BME280;62772;48.646;8.906;2023-05-07T14:12:16;96296.34;;;14.99;100.00
4598;BME280;62772;48.646;8.906;2023-05-07T14:17:17;96296.50;;;15.59;100.00
4598;BME280;62772;48.646;8.906;2023-05-07T14:22:18;96297.22;;;15.85;100.00
4598;BME280;62772;48.646;8.906;2023-05-07T14:27:18;96279.97;;;15.73;100.00
4598;BME280;62772;48.646;8.906;2023-05-07T14:32:19;96273.28;;;15.67;100.00
4598;BME280;62772;48.646;8.906;2023-05-07T14:37:20;96264.22;;;15.59;100.00
4598;BME280;62772;48.646;8.906;2023-05-07T14:42:20;96244.81;;;15.54;100.00
4598;BME280;62772;48.646;8.906;2023-05-07T14:47:21;96226.91;;;15.17;100.00
4598;BME280;62772;48.646;8.906;2023-05-07T14:52:22;96241.34;;;15.25;100.00
4598;BME280;62772;48.646;8.906;2023-05-07T14:57:22;96253.31;;;15.40;100.00
4598;BME280;62772;48.646;8.906;2023-05-07T15:02:23;96247.13;;;15.39;100.00
4598;BME280;62772;48.646;8.906;2023-05-07T15:07:23;96252.91;;;14.73;100.00
4598;BME280;62772;48.646;8.906;2023-05-07T15:12:24;96255.78;;;15.33;100.00
4598;BME280;62772;48.646;8.906;2023-05-07T15:17:24;96263.19;;;14.46;100.00
4598;BME280;62772;48.646;8.906;2023-05-07T15:22:25;96265.66;;;14.76;100.00
4598;BME280;62772;48.646;8.906;2023-05-07T15:27:25;96267.78;;;14.45;100.00
4598;BME280;62772;48.646;8.906;2023-05-07T15:32:26;96268.34;;;14.39;100.00
4598;BME280;62772;48.646;8.906;2023-05-07T15:37:26;96277.06;;;14.36;100.00
4598;BME280;62772;48.646;8.906;2023-05-07T15:42:27;96287.50;;;14.62;100.00
4598;BME280;62772;48.646;8.906;2023-05-07T15:47:32;96286.16;;;14.43;100.00
4598;BME280;62772;48.646;8.906;2023-05-07T15:52:33;96287.59;;;14.78;100.00
4598;BME280;62772;48.646;8.906;2023-05-07T15:57:34;96291.53;;;14.80;100.00
4598;BME280;62772;48.646;8.906;2023-05-07T16:02:34;96301.28;;;14.97;100.00
4598;BME280;62772;48.646;8.906;2023-05-07T16:07:36;96300.59;;;14.88;100.00
4598;BME280;62772;48.646;8.906;2023-05-07T16:12:37;96294.66;;;14.82;100.00
4598;BME280;62772;48.646;8.906;2023-05-07T16:17:38;96308.88;;;14.95;100.00
4598;BME280;62772;48.646;8.906;2023-05-07T16:22:38;96306.41;;;14.90;100.00
4598;BME280;62772;48.646;8.906;2023-05-07T16:27:39;96309.00;;;15.11;100.00
4598;BME280;62772;48.646;8.906;2023-05-07T16:32:40;96303.72;;;15.02;100.00
4598;BME280;62772;48.646;8.906;2023-05-07T16:37:40;96298.34;;;15.15;100.00
4598;BME280;62772;48.646;8.906;2023-05-07T16:42:41;96300.53;;;15.25;100.00
4598;BME280;62772;48.646;8.906;2023-05-07T16:47:42;96312.75;;;15.63;100.00
4598;BME280;62772;48.646;8.906;2023-05-07T16:52:42;96323.22;;;15.93;100.00
4598;BME280;62772;48.646;8.906;2023-05-07T16:57:43;96324.94;;;15.85;100.00
4598;BME280;62772;48.646;8.906;2023-05-07T17:02:43;96332.78;;;16.06;100.00
4598;BME280;62772;48.646;8.906;2023-05-07T17:07:45;96347.09;;;16.23;100.00
4598;BME280;62772;48.646;8.906;2023-05-07T17:12:46;96349.19;;;16.29;100.00
4598;BME280;62772;48.646;8.906;2023-05-07T17:17:46;96346.97;;;16.19;100.00
4598;BME280;62772;48.646;8.906;2023-05-07T17:22:47;96345.75;;;16.01;100.00
4598;BME280;62772;48.646;8.906;2023-05-07T17:27:48;96350.38;;;15.47;100.00
4598;BME280;62772;48.646;8.906;2023-05-07T17:32:49;96366.13;;;15.20;100.00
4598;BME280;62772;48.646;8.906;2023-05-07T17:37:49;96362.31;;;15.09;100.00
4598;BME280;62772;48.646;8.906;2023-05-07T17:42:51;96365.03;;;14.72;100.00
4598;BME280;62772;48.646;8.906;2023-05-07T17:47:52;96369.50;;;14.80;100.00
4598;BME280;62772;48.646;8.906;2023-05-07T17:52:53;96368.72;;;14.67;100.00
4598;BME280;62772;48.646;8.906;2023-05-07T17:57:53;96374.38;;;14.41;100.00
4598;BME280;62772;48.646;8.906;2023-05-07T18:03:12;96370.31;;;14.35;100.00
4598;BME280;62772;48.646;8.906;2023-05-07T18:08:33;96384.66;;;14.51;100.00
4598;BME280;62772;48.646;8.906;2023-05-07T18:13:54;96388.09;;;15.22;100.00
4598;BME280;62772;48.646;8.906;2023-05-07T18:19:15;96383.81;;;15.34;100.00
4598;BME280;62772;48.646;8.906;2023-05-07T18:24:36;96387.00;;;15.11;100.00
4598;BME280;62772;48.646;8.906;2023-05-07T18:29:56;96391.47;;;14.70;100.00
4598;BME280;62772;48.646;8.906;2023-05-07T18:35:17;96388.78;;;14.70;100.00
4598;BME280;62772;48.646;8.906;2023-05-07T18:40:38;96396.06;;;14.94;100.00
4598;BME280;62772;48.646;8.906;2023-05-07T18:46:03;96402.56;;;15.18;100.00
4598;BME280;62772;48.646;8.906;2023-05-07T18:51:25;96410.94;;;15.41;100.00
4598;BME280;62772;48.646;8.906;2023-05-07T18:56:46;96418.91;;;15.13;100.00
4598;BME280;62772;48.646;8.906;2023-05-07T19:02:07;96424.09;;;15.18;100.00
4598;BME280;62772;48.646;8.906;2023-05-07T19:07:28;96436.50;;;14.85;100.00
4598;BME280;62772;48.646;8.906;2023-05-07T19:12:49;96444.91;;;15.46;100.00
4598;BME280;62772;48.646;8.906;2023-05-07T19:17:54;96449.06;;;15.43;100.00
4598;BME280;62772;48.646;8.906;2023-05-07T19:22:55;96448.16;;;15.51;100.00
4598;BME280;62772;48.646;8.906;2023-05-07T19:27:55;96469.13;;;15.46;100.00
4598;BME280;62772;48.646;8.906;2023-05-07T19:32:58;96473.47;;;14.88;100.00
4598;BME280;62772;48.646;8.906;2023-05-07T19:37:58;96482.47;;;15.05;100.00
4598;BME280;62772;48.646;8.906;2023-05-07T19:42:59;96492.34;;;15.13;100.00
4598;BME280;62772;48.646;8.906;2023-05-07T19:47:59;96494.69;;;14.36;100.00
4598;BME280;62772;48.646;8.906;2023-05-07T19:53:00;96512.03;;;14.93;100.00
4598;BME280;62772;48.646;8.906;2023-05-07T19:58:01;96513.75;;;15.22;100.00
4598;BME280;62772;48.646;8.906;2023-05-07T20:03:01;96519.72;;;15.28;100.00
4598;BME280;62772;48.646;8.906;2023-05-07T20:08:02;96523.94;;;15.29;100.00
4598;BME280;62772;48.646;8.906;2023-05-07T20:13:03;96514.75;;;15.05;100.00
4598;BME280;62772;48.646;8.906;2023-05-07T20:18:05;96531.69;;;14.72;100.00
4598;BME280;62772;48.646;8.906;2023-05-07T20:23:05;96532.53;;;14.97;100.00
4598;BME280;62772;48.646;8.906;2023-05-07T20:28:07;96533.53;;;14.93;100.00
4598;BME280;62772;48.646;8.906;2023-05-07T20:33:07;96524.13;;;14.44;100.00
4598;BME280;62772;48.646;8.906;2023-05-07T20:38:08;96531.06;;;15.00;100.00
4598;BME280;62772;48.646;8.906;2023-05-07T20:43:08;96530.69;;;15.22;100.00
4598;BME280;62772;48.646;8.906;2023-05-07T20:48:09;96530.03;;;14.80;100.00
4598;BME280;62772;48.646;8.906;2023-05-07T20:53:10;96542.22;;;14.77;100.00
4598;BME280;62772;48.646;8.906;2023-05-07T20:58:13;96543.56;;;15.17;100.00
4598;BME280;62772;48.646;8.906;2023-05-07T21:03:14;96542.31;;;15.02;100.00
4598;BME280;62772;48.646;8.906;2023-05-07T21:08:14;96537.28;;;14.79;100.00
4598;BME280;62772;48.646;8.906;2023-05-07T21:13:15;96538.63;;;15.07;100.00
4598;BME280;62772;48.646;8.906;2023-05-07T21:18:16;96540.34;;;14.90;100.00
4598;BME280;62772;48.646;8.906;2023-05-07T21:23:17;96544.53;;;14.66;100.00
4598;BME280;62772;48.646;8.906;2023-05-07T21:28:17;96532.44;;;14.60;100.00
4598;BME280;62772;48.646;8.906;2023-05-07T21:33:18;96537.66;;;14.36;100.00
4598;BME280;62772;48.646;8.906;2023-05-07T21:38:19;96542.38;;;14.18;100.00
4598;BME280;62772;48.646;8.906;2023-05-07T21:43:19;96542.16;;;14.44;100.00
4598;BME280;62772;48.646;8.906;2023-05-07T21:48:20;96534.78;;;14.62;100.00
4598;BME280;62772;48.646;8.906;2023-05-07T21:53:21;96542.75;;;14.71;100.00
4598;BME280;62772;48.646;8.906;2023-05-07T21:58:21;96543.75;;;14.66;100.00
4598;BME280;62772;48.646;8.906;2023-05-07T22:03:22;96543.69;;;14.32;100.00
4598;BME280;62772;48.646;8.906;2023-05-07T22:08:23;96548.72;;;14.55;100.00
4598;BME280;62772;48.646;8.906;2023-05-07T22:13:23;96541.06;;;14.66;100.00
4598;BME280;62772;48.646;8.906;2023-05-07T22:18:24;96544.47;;;14.75;100.00
4598;BME280;62772;48.646;8.906;2023-05-07T22:23:25;96528.69;;;14.52;100.00
4598;BME280;62772;48.646;8.906;2023-05-07T22:28:26;96541.00;;;14.32;100.00
4598;BME280;62772;48.646;8.906;2023-05-07T22:33:26;96536.88;;;14.14;100.00
4598;BME280;62772;48.646;8.906;2023-05-07T22:38:26;96539.75;;;13.88;100.00
4598;BME280;62772;48.646;8.906;2023-05-07T22:43:27;96540.25;;;13.81;100.00
4598;BME280;62772;48.646;8.906;2023-05-07T22:48:28;96543.53;;;13.87;100.00
4598;BME280;62772;48.646;8.906;2023-05-07T22:53:28;96541.78;;;13.61;100.00
4598;BME280;62772;48.646;8.906;2023-05-07T22:58:29;96544.72;;;13.38;100.00
4598;BME280;62772;48.646;8.906;2023-05-07T23:03:29;96553.56;;;13.21;100.00
4598;BME280;62772;48.646;8.906;2023-05-07T23:08:30;96552.72;;;13.00;100.00
4598;BME280;62772;48.646;8.906;2023-05-07T23:13:30;96554.94;;;12.89;100.00
4598;BME280;62772;48.646;8.906;2023-05-07T23:18:31;96551.06;;;13.34;100.00
4598;BME280;62772;48.646;8.906;2023-05-07T23:23:33;96549.56;;;12.89;100.00
4598;BME280;62772;48.646;8.906;2023-05-07T23:28:34;96550.38;;;12.81;100.00
4598;BME280;62772;48.646;8.906;2023-05-07T23:33:35;96553.34;;;12.97;100.00
4598;BME280;62772;48.646;8.906;2023-05-07T23:38:36;96553.81;;;12.99;100.00
4598;BME280;62772;48.646;8.906;2023-05-07T23:43:36;96543.75;;;12.87;100.00
4598;BME280;62772;48.646;8.906;2023-05-07T23:48:37;96548.31;;;12.95;100.00
4598;BME280;62772;48.646;8.906;2023-05-07T23:53:37;96548.59;;;13.02;100.00
4598;BME280;62772;48.646;8.906;2023-05-07T23:58:38;96549.22;;;13.08;100.00
